createdAt,value
2023-04-19T00:00:12.120Z,4.23
2023-04-19T00:02:42.878Z,4.43
2023-04-19T00:05:12.105Z,4.34
2023-04-19T00:07:40.062Z,4.55
2023-04-19T00:10:09.215Z,4.49
2023-04-19T00:12:37.785Z,4.47
2023-04-19T00:15:06.581Z,4.42
2023-04-19T00:17:34.766Z,4.10
2023-04-19T00:20:05.382Z,4.42
2023-04-19T00:22:33.236Z,4.40
2023-04-19T00:25:01.053Z,4.38
2023-04-19T00:27:29.102Z,4.35
2023-04-19T00:29:57.456Z,4.31
2023-04-19T00:32:25.559Z,3.88
2023-04-19T00:34:53.777Z,4.07
2023-04-19T00:37:22.996Z,4.17
2023-04-19T00:39:50.820Z,4.22
2023-04-19T00:42:18.810Z,4.14
2023-04-19T00:44:46.644Z,4.10
2023-04-19T00:47:15.461Z,4.05
2023-04-19T00:49:43.672Z,3.95
2023-04-19T00:52:11.531Z,3.97
2023-04-19T00:54:41.976Z,3.94
2023-04-19T00:57:10.127Z,3.48
2023-04-19T00:59:38.841Z,3.71
2023-04-19T01:02:07.510Z,3.88
2023-04-19T01:04:36.325Z,3.72
2023-04-19T01:07:04.350Z,3.80
2023-04-19T01:09:32.192Z,3.77
2023-04-19T01:12:03.565Z,3.78
2023-04-19T01:14:31.451Z,3.76
2023-04-19T01:16:59.410Z,3.72
2023-04-19T01:19:27.568Z,3.54
2023-04-19T01:21:56.419Z,3.67
2023-04-19T01:24:25.708Z,3.64
2023-04-19T01:26:53.871Z,3.61
2023-04-19T01:29:22.205Z,3.59
2023-04-19T01:31:53.706Z,3.57
2023-04-19T01:34:23.277Z,3.54
2023-04-19T01:36:51.460Z,3.38
2023-04-19T01:39:19.398Z,3.45
2023-04-19T01:41:49.079Z,3.23
2023-04-19T01:44:17.065Z,3.40
2023-04-19T01:46:47.881Z,3.37
2023-04-19T01:49:16.242Z,3.38
2023-04-19T01:51:44.102Z,3.36
2023-04-19T01:54:12.133Z,3.34
2023-04-19T01:56:40.243Z,3.31
2023-04-19T01:59:09.581Z,3.29
2023-04-19T02:01:37.508Z,3.27
2023-04-19T02:04:06.204Z,3.17
2023-04-19T02:06:34.127Z,2.04
2023-04-19T02:09:02.137Z,3.23
2023-04-19T02:11:30.147Z,2.96
2023-04-19T02:13:58.068Z,3.11
2023-04-19T02:16:27.386Z,3.17
2023-04-19T02:18:55.438Z,3.09
2023-04-19T02:21:23.268Z,3.11
2023-04-19T02:23:51.170Z,3.08
2023-04-19T02:26:20.519Z,3.05
2023-04-19T02:28:48.372Z,3.04
2023-04-19T02:31:16.637Z,2.54
2023-04-19T02:33:47.387Z,2.92
2023-04-19T02:36:15.316Z,3.00
2023-04-19T02:38:43.388Z,2.88
2023-04-19T02:41:11.422Z,2.94
2023-04-19T02:43:39.243Z,2.90
2023-04-19T02:46:07.258Z,2.86
2023-04-19T02:48:35.438Z,2.83
2023-04-19T02:51:04.907Z,2.76
2023-04-19T02:53:32.785Z,2.75
2023-04-19T02:56:01.527Z,2.76
2023-04-19T02:58:29.408Z,2.48
2023-04-19T03:00:57.295Z,2.55
2023-04-19T03:03:25.486Z,2.72
2023-04-19T03:05:53.436Z,2.65
2023-04-19T03:08:22.650Z,2.69
2023-04-19T03:10:50.895Z,2.57
2023-04-19T03:13:18.719Z,2.65
2023-04-19T03:15:46.805Z,2.63
2023-04-19T03:18:15.105Z,2.56
2023-04-19T03:20:42.945Z,2.59
2023-04-19T03:23:10.948Z,2.56
2023-04-19T03:25:40.340Z,2.55
2023-04-19T03:28:08.194Z,2.54
2023-04-19T03:30:36.027Z,2.33
2023-04-19T03:33:04.057Z,2.52
2023-04-19T03:35:32.560Z,2.49
2023-04-19T03:38:00.542Z,2.47
2023-04-19T03:40:28.579Z,2.46
2023-04-19T03:42:57.796Z,2.38
2023-04-19T03:45:25.704Z,2.44
2023-04-19T03:47:54.000Z,2.46
2023-04-19T03:50:21.872Z,2.44
2023-04-19T03:52:49.771Z,2.45
2023-04-19T03:55:18.000Z,2.47
2023-04-19T03:57:45.912Z,2.43
2023-04-19T04:00:16.687Z,2.17
2023-04-19T04:02:45.119Z,2.47
2023-04-19T04:05:13.450Z,2.49
2023-04-19T04:07:41.445Z,2.51
2023-04-19T04:10:10.499Z,2.25
2023-04-19T04:12:38.357Z,2.33
2023-04-19T04:15:07.141Z,2.51
2023-04-19T04:17:36.532Z,2.58
2023-04-19T04:20:05.735Z,2.48
2023-04-19T04:22:33.828Z,2.64
2023-04-19T04:25:02.302Z,2.66
2023-04-19T04:27:30.151Z,2.68
2023-04-19T04:29:58.000Z,2.72
2023-04-19T04:32:26.485Z,2.77
2023-04-19T04:34:56.153Z,2.83
2023-04-19T04:37:24.439Z,2.78
2023-04-19T04:39:52.849Z,2.93
2023-04-19T04:42:21.630Z,2.99
2023-04-19T04:44:51.287Z,2.90
2023-04-19T04:47:19.838Z,3.11
2023-04-19T04:49:47.838Z,3.17
2023-04-19T04:52:18.632Z,3.21
2023-04-19T04:54:46.589Z,3.25
2023-04-19T04:57:14.420Z,3.14
2023-04-19T04:59:42.407Z,3.32
2023-04-19T05:02:11.124Z,2.96
2023-04-19T05:04:39.310Z,3.38
2023-04-19T05:07:07.449Z,3.31
2023-04-19T05:09:36.814Z,3.49
2023-04-19T05:12:05.096Z,3.42
2023-04-19T05:14:33.380Z,3.45
2023-04-19T05:17:01.325Z,3.55
2023-04-19T05:19:29.413Z,3.71
2023-04-19T05:21:57.647Z,3.77
2023-04-19T05:24:26.175Z,3.82
2023-04-19T05:26:55.409Z,3.81
2023-04-19T05:29:23.427Z,3.91
2023-04-19T05:31:51.633Z,3.88
2023-04-19T05:34:22.032Z,4.02
2023-04-19T05:36:50.314Z,4.01
2023-04-19T05:39:18.321Z,4.17
2023-04-19T05:41:46.255Z,4.24
2023-04-19T05:44:16.044Z,4.17
2023-04-19T05:46:44.222Z,4.36
2023-04-19T05:49:12.090Z,4.43
2023-04-19T05:51:40.110Z,4.56
2023-04-19T05:54:12.602Z,4.63
2023-04-19T05:56:40.626Z,4.72
2023-04-19T05:59:08.536Z,4.63
2023-04-19T06:01:38.036Z,4.93
2023-04-19T06:04:06.218Z,5.00
2023-04-19T06:06:34.275Z,5.04
2023-04-19T06:09:02.218Z,5.11
2023-04-19T06:11:38.842Z,5.13
2023-04-19T06:14:18.160Z,5.28
2023-04-19T06:16:48.240Z,5.36
2023-04-19T06:19:16.524Z,5.44
2023-04-19T06:21:44.379Z,5.52
2023-04-19T06:24:12.350Z,5.47
2023-04-19T06:26:40.468Z,5.67
2023-04-19T06:29:08.402Z,5.76
2023-04-19T06:31:36.440Z,5.53
2023-04-19T06:34:05.828Z,5.64
2023-04-19T06:36:33.996Z,5.85
2023-04-19T06:39:01.932Z,6.11
2023-04-19T06:41:29.892Z,6.16
2023-04-19T06:43:57.796Z,6.41
2023-04-19T06:46:27.704Z,6.54
2023-04-19T06:48:56.074Z,6.67
2023-04-19T06:51:25.288Z,6.73
2023-04-19T06:53:53.147Z,6.98
2023-04-19T06:56:40.978Z,7.25
2023-04-19T06:59:09.117Z,7.50
2023-04-19T07:01:37.223Z,7.78
2023-04-19T07:04:08.650Z,8.49
2023-04-19T07:06:38.838Z,9.05
2023-04-19T07:09:07.673Z,10.22
2023-04-19T07:11:35.850Z,10.92
2023-04-19T07:14:03.968Z,11.66
2023-04-19T07:16:32.050Z,12.38
2023-04-19T07:19:00.145Z,13.05
2023-04-19T07:21:33.029Z,12.82
2023-04-19T07:24:02.477Z,14.01
2023-04-19T07:26:30.797Z,14.60
2023-04-19T07:28:58.933Z,14.96
2023-04-19T07:31:27.020Z,15.27
2023-04-19T07:33:55.286Z,15.61
2023-04-19T07:36:23.264Z,15.85
2023-04-19T07:38:51.158Z,16.08
2023-04-19T07:41:21.157Z,16.25
2023-04-19T07:43:49.025Z,16.14
2023-04-19T07:46:17.200Z,16.73
2023-04-19T07:48:46.471Z,17.03
2023-04-19T07:51:16.447Z,17.26
2023-04-19T07:53:44.999Z,17.41
2023-04-19T07:56:13.358Z,17.45
2023-04-19T07:58:43.900Z,17.56
2023-04-19T08:01:12.131Z,17.72
2023-04-19T08:03:40.391Z,17.95
2023-04-19T08:06:09.344Z,18.22
2023-04-19T08:08:41.374Z,18.33
2023-04-19T08:11:09.319Z,17.65
2023-04-19T08:13:37.170Z,18.22
2023-04-19T08:18:38.269Z,18.82
2023-04-19T08:21:06.438Z,18.97
2023-04-19T08:23:47.256Z,19.43
2023-04-19T08:26:16.382Z,19.54
2023-04-19T08:28:44.433Z,19.61
2023-04-19T08:31:13.778Z,19.87
2023-04-19T08:33:41.808Z,19.98
2023-04-19T08:36:10.624Z,20.08
2023-04-19T08:38:39.033Z,20.08
2023-04-19T08:41:07.099Z,19.89
2023-04-19T08:43:39.863Z,19.45
2023-04-19T08:46:11.807Z,19.22
2023-04-19T08:48:42.548Z,19.05
2023-04-19T08:51:13.803Z,19.00
2023-04-19T08:53:42.389Z,19.09
2023-04-19T08:56:21.102Z,19.21
2023-04-19T09:01:35.630Z,19.92
2023-04-19T09:06:41.820Z,19.93
2023-04-19T09:09:34.017Z,19.99
2023-04-19T09:12:05.356Z,20.29
2023-04-19T09:14:33.350Z,20.63
2023-04-19T09:17:17.811Z,20.72
2023-04-19T09:19:51.019Z,20.82
2023-04-19T09:22:19.534Z,21.25
2023-04-19T09:27:27.467Z,21.29
2023-04-19T09:29:57.301Z,20.99
2023-04-19T09:32:26.534Z,21.13
2023-04-19T09:34:57.642Z,21.45
2023-04-19T09:37:51.538Z,21.52
2023-04-19T09:40:24.608Z,21.55
2023-04-19T09:45:30.102Z,21.51
2023-04-19T09:48:04.182Z,21.50
2023-04-19T09:50:39.113Z,21.38
2023-04-19T09:53:18.821Z,21.86
2023-04-19T09:55:59.563Z,21.68
2023-04-19T09:58:38.249Z,21.54
2023-04-19T10:01:20.055Z,21.68
2023-04-19T10:03:51.501Z,21.71
2023-04-19T10:08:55.856Z,21.62
2023-04-19T10:11:25.444Z,21.97
2023-04-19T10:13:58.244Z,21.95
2023-04-19T10:16:28.269Z,21.77
2023-04-19T10:18:57.097Z,21.69
2023-04-19T10:21:29.972Z,21.42
2023-04-19T10:24:00.032Z,21.42
2023-04-19T10:26:27.897Z,21.54
2023-04-19T10:28:57.569Z,21.21
2023-04-19T10:31:27.652Z,21.48
2023-04-19T10:33:57.790Z,21.42
2023-04-19T10:36:28.986Z,21.69
2023-04-19T10:38:56.922Z,22.05
2023-04-19T10:41:25.313Z,21.71
2023-04-19T10:44:11.636Z,21.85
2023-04-19T10:46:41.178Z,21.89
2023-04-19T10:49:09.942Z,21.91
2023-04-19T10:51:42.528Z,21.96
2023-04-19T10:54:31.484Z,21.65
2023-04-19T10:57:04.738Z,21.42
2023-04-19T10:59:33.647Z,21.56
2023-04-19T11:02:03.247Z,21.42
2023-04-19T11:05:11.657Z,21.52
2023-04-19T11:07:44.353Z,21.71
2023-04-19T11:10:12.868Z,21.68
2023-04-19T11:12:44.921Z,21.63
2023-04-19T11:15:13.008Z,21.86
2023-04-19T11:17:42.778Z,21.68
2023-04-19T11:20:12.117Z,21.54
2023-04-19T11:22:42.600Z,21.52
2023-04-19T11:25:13.999Z,21.58
2023-04-19T11:27:44.231Z,21.77
2023-04-19T11:30:14.281Z,21.39
2023-04-19T11:32:49.680Z,21.34
2023-04-19T11:35:23.323Z,21.71
2023-04-19T11:37:52.371Z,21.68
2023-04-19T11:40:23.337Z,21.78
2023-04-19T11:42:56.797Z,21.23
2023-04-19T11:45:33.075Z,21.37
2023-04-19T11:48:05.856Z,21.68
2023-04-19T11:50:38.713Z,21.89
2023-04-19T11:53:17.361Z,22.04
2023-04-19T11:55:47.824Z,22.06
2023-04-19T11:58:32.602Z,22.34
2023-04-19T12:01:07.037Z,22.49
2023-04-19T12:03:36.456Z,22.90
2023-04-19T12:06:09.118Z,23.47
2023-04-19T12:08:38.680Z,24.14
2023-04-19T12:11:10.588Z,24.49
2023-04-19T12:13:40.910Z,24.89
2023-04-19T12:16:09.642Z,24.47
2023-04-19T12:18:46.062Z,24.46
2023-04-19T12:21:25.817Z,24.44
2023-04-19T12:23:58.100Z,24.13
2023-04-19T12:26:29.373Z,24.41
2023-04-19T12:28:58.278Z,24.19
2023-04-19T12:31:26.272Z,24.27
2023-04-19T12:33:54.370Z,24.96
2023-04-19T12:36:22.637Z,25.26
2023-04-19T12:38:50.519Z,25.03
2023-04-19T12:41:19.345Z,25.42
2023-04-19T12:43:48.807Z,25.48
2023-04-19T12:46:16.759Z,25.69
2023-04-19T12:48:44.700Z,26.21
2023-04-19T12:51:12.838Z,26.65
2023-04-19T12:53:42.541Z,26.85
2023-04-19T12:56:12.065Z,26.24
2023-04-19T12:58:40.481Z,25.78
2023-04-19T13:01:09.812Z,26.17
2023-04-19T13:03:38.016Z,26.62
2023-04-19T13:06:07.281Z,27.03
2023-04-19T13:08:44.579Z,27.24
2023-04-19T13:11:14.881Z,26.90
2023-04-19T13:13:42.827Z,26.38
2023-04-19T13:16:12.084Z,26.14
2023-04-19T13:18:40.584Z,26.36
2023-04-19T13:21:08.847Z,27.41
2023-04-19T13:23:36.953Z,27.72
2023-04-19T13:26:05.238Z,26.69
2023-04-19T13:28:35.710Z,27.06
2023-04-19T13:31:04.731Z,27.11
2023-04-19T13:33:34.475Z,27.29
2023-04-19T13:36:02.432Z,27.84
2023-04-19T13:38:30.650Z,27.96
2023-04-19T13:40:59.392Z,28.52
2023-04-19T13:43:27.357Z,28.53
2023-04-19T13:45:55.331Z,28.45
2023-04-19T13:48:23.658Z,28.31
2023-04-19T13:50:54.926Z,28.37
2023-04-19T13:53:23.269Z,28.67
2023-04-19T13:55:52.246Z,28.88
2023-04-19T13:58:20.646Z,28.92
2023-04-19T14:00:49.138Z,28.91
2023-04-19T14:03:17.632Z,29.09
2023-04-19T14:05:45.718Z,29.16
2023-04-19T14:08:15.023Z,29.20
2023-04-19T14:10:43.134Z,29.29
2023-04-19T14:13:11.053Z,29.35
2023-04-19T14:15:38.964Z,28.83
2023-04-19T14:18:07.180Z,29.71
2023-04-19T14:20:35.521Z,29.91
2023-04-19T14:23:03.906Z,29.60
2023-04-19T14:25:33.286Z,29.80
2023-04-19T14:28:01.233Z,29.88
2023-04-19T14:30:31.006Z,29.71
2023-04-19T14:32:59.119Z,29.19
2023-04-19T14:35:27.126Z,29.24
2023-04-19T14:37:55.042Z,29.87
2023-04-19T14:40:22.975Z,30.10
2023-04-19T14:42:53.357Z,30.04
2023-04-19T14:45:21.624Z,29.73
2023-04-19T14:47:50.383Z,29.03
2023-04-19T14:50:21.543Z,29.26
2023-04-19T14:52:49.789Z,29.32
2023-04-19T14:55:17.804Z,28.56
2023-04-19T14:57:46.009Z,28.30
2023-04-19T15:00:16.396Z,27.65
2023-04-19T15:02:44.426Z,27.60
2023-04-19T15:05:12.598Z,27.93
2023-04-19T15:07:40.608Z,27.74
2023-04-19T15:10:09.505Z,26.94
2023-04-19T15:12:37.549Z,26.28
2023-04-19T15:15:06.235Z,25.51
2023-04-19T15:17:36.043Z,25.00
2023-04-19T15:20:05.742Z,24.85
2023-04-19T15:22:33.939Z,25.01
2023-04-19T15:25:02.178Z,24.82
2023-04-19T15:27:30.318Z,25.87
2023-04-19T15:29:58.261Z,26.23
2023-04-19T15:32:26.604Z,26.39
2023-04-19T15:34:55.975Z,25.42
2023-04-19T15:37:23.817Z,24.71
2023-04-19T15:39:51.648Z,24.40
2023-04-19T15:42:20.003Z,24.35
2023-04-19T15:44:47.893Z,24.17
2023-04-19T15:47:15.913Z,24.37
2023-04-19T15:49:43.862Z,24.49
2023-04-19T15:52:13.093Z,24.36
2023-04-19T15:54:41.290Z,24.32
2023-04-19T15:57:09.328Z,24.30
2023-04-19T15:59:37.290Z,23.40
2023-04-19T16:02:05.557Z,23.77
2023-04-19T16:04:34.761Z,23.73
2023-04-19T16:07:02.875Z,24.13
2023-04-19T16:09:32.304Z,23.99
2023-04-19T16:12:00.906Z,23.50
2023-04-19T16:14:28.802Z,23.68
2023-04-19T16:16:56.743Z,23.83
2023-04-19T16:19:25.891Z,24.06
2023-04-19T16:21:53.744Z,24.19
2023-04-19T16:24:21.744Z,24.08
2023-04-19T16:26:51.072Z,23.88
2023-04-19T16:29:19.063Z,23.90
2023-04-19T16:31:48.555Z,23.96
2023-04-19T16:34:19.058Z,23.89
2023-04-19T16:36:47.383Z,23.51
2023-04-19T16:39:17.992Z,22.71
2023-04-19T16:41:46.374Z,22.29
2023-04-19T16:44:15.574Z,22.08
2023-04-19T16:46:44.029Z,21.27
2023-04-19T16:49:12.136Z,20.72
2023-04-19T16:51:39.979Z,20.44
2023-04-19T16:54:07.804Z,20.19
2023-04-19T16:56:35.730Z,19.94
2023-04-19T16:59:03.930Z,19.53
2023-04-19T17:01:33.141Z,19.00
2023-04-19T17:04:01.480Z,18.59
2023-04-19T17:06:29.434Z,18.36
2023-04-19T17:08:57.331Z,18.27
2023-04-19T17:11:25.490Z,18.07
2023-04-19T17:13:55.305Z,18.05
2023-04-19T17:16:25.000Z,17.89
2023-04-19T17:18:56.797Z,17.48
2023-04-19T17:21:27.798Z,17.10
2023-04-19T17:23:55.725Z,16.44
2023-04-19T17:26:23.682Z,16.21
2023-04-19T17:28:51.690Z,15.61
2023-04-19T17:31:19.680Z,15.18
2023-04-19T17:33:47.586Z,14.74
2023-04-19T17:36:16.929Z,14.47
2023-04-19T17:38:45.107Z,14.21
2023-04-19T17:41:16.307Z,13.95
2023-04-19T17:43:44.602Z,13.50
2023-04-19T17:46:13.290Z,13.40
2023-04-19T17:48:41.233Z,13.27
2023-04-19T17:51:09.555Z,12.83
2023-04-19T17:53:38.852Z,13.02
2023-04-19T17:56:06.879Z,12.91
2023-04-19T17:58:36.261Z,12.73
2023-04-19T18:01:04.515Z,12.68
2023-04-19T18:03:32.707Z,12.06
2023-04-19T18:06:00.762Z,12.32
2023-04-19T18:08:28.738Z,12.40
2023-04-19T18:10:57.972Z,12.31
2023-04-19T18:13:26.656Z,11.38
2023-04-19T18:15:54.854Z,12.06
2023-04-19T18:18:23.361Z,12.07
2023-04-19T18:20:51.597Z,11.66
2023-04-19T18:23:19.622Z,11.81
2023-04-19T18:25:54.291Z,11.75
2023-04-19T18:28:23.658Z,11.58
2023-04-19T18:30:51.498Z,11.60
2023-04-19T18:33:28.094Z,11.51
2023-04-19T18:35:56.096Z,11.34
2023-04-19T18:38:23.999Z,10.90
2023-04-19T18:40:52.511Z,11.13
2023-04-19T18:43:20.563Z,11.09
2023-04-19T18:45:56.191Z,10.90
2023-04-19T18:48:27.991Z,10.92
2023-04-19T18:50:57.198Z,10.97
2023-04-19T18:53:26.876Z,9.79
2023-04-19T18:55:57.603Z,10.58
2023-04-19T18:58:28.156Z,10.80
2023-04-19T19:00:57.742Z,10.78
2023-04-19T19:05:58.512Z,10.05
2023-04-19T19:08:26.734Z,10.54
2023-04-19T19:13:25.641Z,10.44
2023-04-19T19:15:53.826Z,10.15
2023-04-19T19:18:23.240Z,10.27
2023-04-19T19:20:51.679Z,9.78
2023-04-19T19:23:20.517Z,10.15
2023-04-19T19:25:54.215Z,10.12
2023-04-19T19:28:22.554Z,9.97
2023-04-19T19:30:50.829Z,9.86
2023-04-19T19:33:19.092Z,9.48
2023-04-19T19:35:48.363Z,9.74
2023-04-19T19:38:16.469Z,9.64
2023-04-19T19:43:16.427Z,9.67
2023-04-19T19:45:44.505Z,9.64
2023-04-19T19:48:12.656Z,9.61
2023-04-19T19:53:13.004Z,9.60
2023-04-19T19:55:40.986Z,9.57
2023-04-19T20:00:46.850Z,9.52
2023-04-19T20:03:24.889Z,9.48
2023-04-19T20:06:35.551Z,9.42
2023-04-19T20:08:56.172Z,9.36
2023-04-19T20:11:24.554Z,9.35
2023-04-19T20:13:52.405Z,9.34
2023-04-19T20:16:20.971Z,9.20
2023-04-19T20:18:49.924Z,9.25
2023-04-19T20:21:19.654Z,9.22
2023-04-19T20:23:47.573Z,9.17
2023-04-19T20:26:17.021Z,9.13
2023-04-19T20:28:44.849Z,9.01
2023-04-19T20:31:12.694Z,9.06
2023-04-19T20:33:40.812Z,9.04
2023-04-19T20:36:09.562Z,9.05
2023-04-19T20:38:37.514Z,9.01
2023-04-19T20:41:06.157Z,8.99
2023-04-19T20:43:35.679Z,8.84
2023-04-19T20:46:03.674Z,8.87
2023-04-19T20:48:31.939Z,8.44
2023-04-19T20:50:59.783Z,8.64
2023-04-19T20:53:27.802Z,8.72
2023-04-19T20:55:56.096Z,8.64
2023-04-19T20:58:23.955Z,8.52
2023-04-19T21:00:53.368Z,8.55
2023-04-19T21:03:21.462Z,8.50
2023-04-19T21:05:49.514Z,8.42
2023-04-19T21:08:19.100Z,8.28
2023-04-19T21:10:48.359Z,8.34
2023-04-19T21:13:16.255Z,8.33
2023-04-19T21:15:44.319Z,8.18
2023-04-19T21:18:13.635Z,8.16
2023-04-19T21:20:41.497Z,8.17
2023-04-19T21:23:09.442Z,8.14
2023-04-19T21:25:37.370Z,8.14
2023-04-19T21:28:05.223Z,8.11
2023-04-19T21:30:33.589Z,8.09
2023-04-19T21:33:01.626Z,7.51
2023-04-19T21:35:30.882Z,7.97
2023-04-19T21:37:59.059Z,7.99
2023-04-19T21:40:27.079Z,7.95
2023-04-19T21:42:55.004Z,7.90
2023-04-19T21:45:22.960Z,7.89
2023-04-19T21:47:51.997Z,7.65
2023-04-19T21:50:19.987Z,7.79
2023-04-19T21:52:49.282Z,7.69
2023-04-19T21:55:17.221Z,7.58
2023-04-19T21:57:45.091Z,7.54
2023-04-19T22:00:13.921Z,7.55
2023-04-19T22:02:42.139Z,7.46
2023-04-19T22:05:10.436Z,7.44
2023-04-19T22:07:38.651Z,7.52
2023-04-19T22:10:09.715Z,7.48
2023-04-19T22:12:47.971Z,7.49
2023-04-19T22:15:23.456Z,7.22
2023-04-19T22:17:52.042Z,7.33
2023-04-19T22:20:20.235Z,6.62
2023-04-19T22:22:48.273Z,6.84
2023-04-19T22:25:17.477Z,7.23
2023-04-19T22:27:45.708Z,7.20
2023-04-19T22:30:14.159Z,7.03
2023-04-19T22:32:42.032Z,7.12
2023-04-19T22:35:10.623Z,7.07
2023-04-19T22:37:38.664Z,6.87
2023-04-19T22:40:07.855Z,6.63
2023-04-19T22:42:37.225Z,6.88
2023-04-19T22:45:06.389Z,6.84
2023-04-19T22:47:34.286Z,6.82
2023-04-19T22:50:02.309Z,6.80
2023-04-19T22:52:30.510Z,6.76
2023-04-19T22:54:58.467Z,6.67
2023-04-19T22:57:26.425Z,6.58
2023-04-19T22:59:55.861Z,6.57
2023-04-19T23:02:23.773Z,6.51
2023-04-19T23:04:52.277Z,6.04
2023-04-19T23:07:22.060Z,6.49
2023-04-19T23:09:51.052Z,6.53
2023-04-19T23:12:18.899Z,6.42
2023-04-19T23:14:48.576Z,6.48
2023-04-19T23:17:18.201Z,6.46
2023-04-19T23:19:46.460Z,6.37
2023-04-19T23:22:14.541Z,6.32
2023-04-19T23:24:42.375Z,6.25
2023-04-19T23:27:10.382Z,6.21
2023-04-19T23:29:39.103Z,6.17
2023-04-19T23:32:07.197Z,5.77
2023-04-19T23:34:37.435Z,6.00
2023-04-19T23:37:05.792Z,6.05
2023-04-19T23:39:33.794Z,6.00
2023-04-19T23:42:02.186Z,5.93
2023-04-19T23:44:30.616Z,5.89
2023-04-19T23:46:58.652Z,5.85
2023-04-19T23:49:26.571Z,5.64
2023-04-19T23:51:55.923Z,5.77
2023-04-19T23:54:26.172Z,4.69
2023-04-19T23:56:54.240Z,5.75
2023-04-19T23:59:26.873Z,5.69
